createdAt,value
2023-05-14T00:00:29.941Z,527.00
2023-05-14T00:01:00.053Z,527.00
2023-05-14T00:01:30.113Z,528.00
2023-05-14T00:02:00.291Z,529.00
2023-05-14T00:02:30.411Z,530.00
2023-05-14T00:03:00.506Z,528.00
2023-05-14T00:03:30.456Z,528.00
2023-05-14T00:04:00.519Z,528.00
2023-05-14T00:04:30.602Z,529.00
2023-05-14T00:05:00.631Z,529.00
2023-05-14T00:05:30.716Z,530.00
2023-05-14T00:06:00.798Z,530.00
2023-05-14T00:06:30.892Z,529.00
2023-05-14T00:07:00.989Z,530.00
2023-05-14T00:07:31.177Z,530.00
2023-05-14T00:08:01.148Z,530.00
2023-05-14T00:08:31.239Z,529.00
2023-05-14T00:09:01.313Z,530.00
2023-05-14T00:09:31.406Z,533.00
2023-05-14T00:10:01.476Z,533.00
2023-05-14T00:10:31.554Z,533.00
2023-05-14T00:11:01.637Z,533.00
2023-05-14T00:11:31.738Z,533.00
2023-05-14T00:12:01.825Z,533.00
2023-05-14T00:12:31.910Z,532.00
2023-05-14T00:13:01.989Z,533.00
2023-05-14T00:13:32.081Z,532.00
2023-05-14T00:14:02.163Z,531.00
2023-05-14T00:14:32.250Z,531.00
2023-05-14T00:15:02.325Z,531.00
2023-05-14T00:15:34.320Z,532.00
2023-05-14T00:16:02.496Z,532.00
2023-05-14T00:16:32.513Z,531.00
2023-05-14T00:17:02.620Z,530.00
2023-05-14T00:17:32.696Z,530.00
2023-05-14T00:18:02.818Z,532.00
2023-05-14T00:18:32.825Z,533.00
2023-05-14T00:19:02.835Z,532.00
2023-05-14T00:19:32.926Z,531.00
2023-05-14T00:20:03.018Z,531.00
2023-05-14T00:20:33.128Z,532.00
2023-05-14T00:21:03.210Z,530.00
2023-05-14T00:21:33.302Z,530.00
2023-05-14T00:22:03.391Z,530.00
2023-05-14T00:22:33.467Z,529.00
2023-05-14T00:23:03.552Z,528.00
2023-05-14T00:23:33.641Z,530.00
2023-05-14T00:24:03.727Z,531.00
2023-05-14T00:24:33.818Z,535.00
2023-05-14T00:25:03.927Z,530.00
2023-05-14T00:25:34.007Z,526.00
2023-05-14T00:26:04.088Z,526.00
2023-05-14T00:26:34.170Z,525.00
2023-05-14T00:27:04.278Z,527.00
2023-05-14T00:27:34.356Z,527.00
2023-05-14T00:28:04.428Z,531.00
2023-05-14T00:28:34.512Z,532.00
2023-05-14T00:29:04.596Z,531.00
2023-05-14T00:29:34.685Z,529.00
2023-05-14T00:30:04.778Z,530.00
2023-05-14T00:30:34.864Z,530.00
2023-05-14T00:31:05.023Z,532.00
2023-05-14T00:31:35.071Z,533.00
2023-05-14T00:32:05.061Z,533.00
2023-05-14T00:32:35.117Z,533.00
2023-05-14T00:33:05.212Z,534.00
2023-05-14T00:33:35.258Z,535.00
2023-05-14T00:34:05.323Z,536.00
2023-05-14T00:34:35.374Z,535.00
2023-05-14T00:35:05.421Z,536.00
2023-05-14T00:35:35.465Z,535.00
2023-05-14T00:36:05.534Z,535.00
2023-05-14T00:36:35.579Z,534.00
2023-05-14T00:37:05.612Z,533.00
2023-05-14T00:37:35.645Z,532.00
2023-05-14T00:38:05.691Z,533.00
2023-05-14T00:38:35.750Z,532.00
2023-05-14T00:39:05.810Z,532.00
2023-05-14T00:39:35.853Z,532.00
2023-05-14T00:40:05.911Z,532.00
2023-05-14T00:40:35.942Z,533.00
2023-05-14T00:41:05.991Z,533.00
2023-05-14T00:41:36.032Z,532.00
2023-05-14T00:42:06.071Z,531.00
2023-05-14T00:42:36.169Z,530.00
2023-05-14T00:43:06.245Z,530.00
2023-05-14T00:43:36.328Z,531.00
2023-05-14T00:44:06.408Z,531.00
2023-05-14T00:44:36.499Z,533.00
2023-05-14T00:45:06.579Z,531.00
2023-05-14T00:45:36.657Z,533.00
2023-05-14T00:46:06.760Z,535.00
2023-05-14T00:46:36.929Z,534.00
2023-05-14T00:47:07.045Z,536.00
2023-05-14T00:47:36.964Z,537.00
2023-05-14T00:48:07.119Z,535.00
2023-05-14T00:48:37.138Z,533.00
2023-05-14T00:49:07.228Z,534.00
2023-05-14T00:49:37.312Z,532.00
2023-05-14T00:50:07.401Z,529.00
2023-05-14T00:50:37.486Z,529.00
2023-05-14T00:51:07.564Z,529.00
2023-05-14T00:51:37.663Z,528.00
2023-05-14T00:52:07.728Z,530.00
2023-05-14T00:52:37.829Z,530.00
2023-05-14T00:53:07.921Z,528.00
2023-05-14T00:53:38.012Z,528.00
2023-05-14T00:54:08.115Z,528.00
2023-05-14T00:54:38.176Z,527.00
2023-05-14T00:55:08.270Z,527.00
2023-05-14T00:55:38.354Z,525.00
2023-05-14T00:56:08.440Z,525.00
2023-05-14T00:56:38.503Z,524.00
2023-05-14T00:57:08.598Z,523.00
2023-05-14T00:57:38.714Z,523.00
2023-05-14T00:58:08.807Z,522.00
2023-05-14T00:58:38.863Z,524.00
2023-05-14T00:59:08.950Z,524.00
2023-05-14T00:59:39.044Z,522.00
2023-05-14T01:00:09.130Z,522.00
2023-05-14T01:00:39.250Z,524.00
2023-05-14T01:01:09.289Z,525.00
2023-05-14T01:01:39.269Z,525.00
2023-05-14T01:02:09.388Z,524.00
2023-05-14T01:02:39.408Z,523.00
2023-05-14T01:03:09.506Z,524.00
2023-05-14T01:03:39.497Z,525.00
2023-05-14T01:04:09.415Z,524.00
2023-05-14T01:04:39.494Z,524.00
2023-05-14T01:05:09.575Z,525.00
2023-05-14T01:05:39.663Z,524.00
2023-05-14T01:06:09.749Z,522.00
2023-05-14T01:06:39.845Z,522.00
2023-05-14T01:07:09.935Z,521.00
2023-05-14T01:07:40.024Z,520.00
2023-05-14T01:08:10.105Z,520.00
2023-05-14T01:08:40.191Z,521.00
2023-05-14T01:09:10.287Z,522.00
2023-05-14T01:09:40.360Z,520.00
2023-05-14T01:10:10.439Z,521.00
2023-05-14T01:10:40.528Z,521.00
2023-05-14T01:11:10.631Z,524.00
2023-05-14T01:11:40.724Z,524.00
2023-05-14T01:12:10.811Z,524.00
2023-05-14T01:12:40.913Z,523.00
2023-05-14T01:13:10.986Z,522.00
2023-05-14T01:13:41.062Z,521.00
2023-05-14T01:14:11.152Z,522.00
2023-05-14T01:14:41.244Z,523.00
2023-05-14T01:15:11.326Z,523.00
2023-05-14T01:15:41.411Z,524.00
2023-05-14T01:16:11.634Z,524.00
2023-05-14T01:16:41.532Z,526.00
2023-05-14T01:17:11.615Z,527.00
2023-05-14T01:17:41.770Z,527.00
2023-05-14T01:18:11.756Z,528.00
2023-05-14T01:18:41.739Z,530.00
2023-05-14T01:19:11.916Z,531.00
2023-05-14T01:19:41.923Z,531.00
2023-05-14T01:20:12.169Z,531.00
2023-05-14T01:20:42.022Z,531.00
2023-05-14T01:21:12.113Z,531.00
2023-05-14T01:21:42.203Z,529.00
2023-05-14T01:22:12.308Z,528.00
2023-05-14T01:22:42.393Z,528.00
2023-05-14T01:23:12.480Z,530.00
2023-05-14T01:23:42.568Z,530.00
2023-05-14T01:24:12.651Z,531.00
2023-05-14T01:24:42.732Z,530.00
2023-05-14T01:25:12.816Z,529.00
2023-05-14T01:25:42.921Z,530.00
2023-05-14T01:26:12.997Z,530.00
2023-05-14T01:26:43.092Z,529.00
2023-05-14T01:27:13.180Z,530.00
2023-05-14T01:27:43.259Z,529.00
2023-05-14T01:28:13.335Z,529.00
2023-05-14T01:28:43.424Z,529.00
2023-05-14T01:29:13.518Z,529.00
2023-05-14T01:29:43.609Z,529.00
2023-05-14T01:30:13.708Z,529.00
2023-05-14T01:30:43.798Z,528.00
2023-05-14T01:31:13.893Z,527.00
2023-05-14T01:31:43.992Z,526.00
2023-05-14T01:32:14.003Z,526.00
2023-05-14T01:32:44.008Z,525.00
2023-05-14T01:33:14.069Z,526.00
2023-05-14T01:33:44.102Z,527.00
2023-05-14T01:34:14.126Z,526.00
2023-05-14T01:34:44.174Z,526.00
2023-05-14T01:35:14.227Z,526.00
2023-05-14T01:35:44.304Z,526.00
2023-05-14T01:36:14.329Z,526.00
2023-05-14T01:36:44.372Z,525.00
2023-05-14T01:37:14.406Z,525.00
2023-05-14T01:37:44.450Z,526.00
2023-05-14T01:38:14.494Z,527.00
2023-05-14T01:38:44.539Z,528.00
2023-05-14T01:39:14.620Z,528.00
2023-05-14T01:39:44.658Z,527.00
2023-05-14T01:40:14.705Z,526.00
2023-05-14T01:40:44.749Z,526.00
2023-05-14T01:41:14.827Z,525.00
2023-05-14T01:41:44.853Z,526.00
2023-05-14T01:42:14.898Z,524.00
2023-05-14T01:42:45.026Z,523.00
2023-05-14T01:43:15.059Z,522.00
2023-05-14T01:43:45.061Z,521.00
2023-05-14T01:44:15.194Z,522.00
2023-05-14T01:44:45.258Z,521.00
2023-05-14T01:45:15.345Z,522.00
2023-05-14T01:45:45.523Z,523.00
2023-05-14T01:46:15.537Z,524.00
2023-05-14T01:46:45.629Z,524.00
2023-05-14T01:47:15.718Z,524.00
2023-05-14T01:47:45.832Z,526.00
2023-05-14T01:48:15.841Z,526.00
2023-05-14T01:48:45.951Z,528.00
2023-05-14T01:49:16.015Z,526.00
2023-05-14T01:49:46.086Z,526.00
2023-05-14T01:50:16.178Z,528.00
2023-05-14T01:50:46.256Z,527.00
2023-05-14T01:51:16.350Z,526.00
2023-05-14T01:51:46.438Z,530.00
2023-05-14T01:52:16.519Z,529.00
2023-05-14T01:52:46.606Z,526.00
2023-05-14T01:53:16.720Z,526.00
2023-05-14T01:53:46.917Z,527.00
2023-05-14T01:54:16.877Z,526.00
2023-05-14T01:54:46.966Z,527.00
2023-05-14T01:55:17.053Z,527.00
2023-05-14T01:55:47.174Z,527.00
2023-05-14T01:56:17.235Z,527.00
2023-05-14T01:56:47.308Z,527.00
2023-05-14T01:57:17.396Z,527.00
2023-05-14T01:57:47.493Z,528.00
2023-05-14T01:58:17.581Z,530.00
2023-05-14T01:58:47.675Z,531.00
2023-05-14T01:59:17.751Z,531.00
2023-05-14T01:59:47.846Z,531.00
2023-05-14T02:00:17.926Z,531.00
2023-05-14T02:00:48.010Z,530.00
2023-05-14T02:01:18.165Z,529.00
2023-05-14T02:01:48.203Z,529.00
2023-05-14T02:02:18.196Z,530.00
2023-05-14T02:02:48.330Z,529.00
2023-05-14T02:03:18.294Z,532.00
2023-05-14T02:03:48.441Z,531.00
2023-05-14T02:04:18.559Z,531.00
2023-05-14T02:04:48.461Z,531.00
2023-05-14T02:05:18.549Z,530.00
2023-05-14T02:05:48.639Z,530.00
2023-05-14T02:06:18.721Z,530.00
2023-05-14T02:06:48.811Z,531.00
2023-05-14T02:07:18.905Z,530.00
2023-05-14T02:07:49.010Z,529.00
2023-05-14T02:08:19.105Z,526.00
2023-05-14T02:08:49.174Z,527.00
2023-05-14T02:09:19.259Z,524.00
2023-05-14T02:09:49.349Z,523.00
2023-05-14T02:10:19.444Z,528.00
2023-05-14T02:10:49.522Z,527.00
2023-05-14T02:11:19.605Z,529.00
2023-05-14T02:11:49.704Z,528.00
2023-05-14T02:12:19.818Z,528.00
2023-05-14T02:12:49.886Z,529.00
2023-05-14T02:13:19.970Z,529.00
2023-05-14T02:13:50.079Z,531.00
2023-05-14T02:14:20.158Z,531.00
2023-05-14T02:14:50.241Z,532.00
2023-05-14T02:15:20.326Z,532.00
2023-05-14T02:15:50.444Z,532.00
2023-05-14T02:16:20.498Z,530.00
2023-05-14T02:16:50.467Z,528.00
2023-05-14T02:17:20.552Z,528.00
2023-05-14T02:17:50.701Z,529.00
2023-05-14T02:18:20.735Z,528.00
2023-05-14T02:18:50.875Z,527.00
2023-05-14T02:19:20.825Z,527.00
2023-05-14T02:19:50.946Z,524.00
2023-05-14T02:20:21.138Z,525.00
2023-05-14T02:20:51.045Z,526.00
2023-05-14T02:21:21.159Z,527.00
2023-05-14T02:21:51.278Z,527.00
2023-05-14T02:22:21.342Z,529.00
2023-05-14T02:22:51.421Z,530.00
2023-05-14T02:23:31.049Z,531.00
2023-05-14T02:23:51.579Z,531.00
2023-05-14T02:24:21.661Z,531.00
2023-05-14T02:24:51.743Z,532.00
2023-05-14T02:25:21.817Z,532.00
2023-05-14T02:25:51.895Z,532.00
2023-05-14T02:26:21.997Z,531.00
2023-05-14T02:26:52.085Z,531.00
2023-05-14T02:27:22.172Z,531.00
2023-05-14T02:27:52.262Z,530.00
2023-05-14T02:28:22.341Z,531.00
2023-05-14T02:28:52.440Z,531.00
2023-05-14T02:29:22.522Z,531.00
2023-05-14T02:29:52.597Z,530.00
2023-05-14T02:30:23.007Z,530.00
2023-05-14T02:30:52.806Z,528.00
2023-05-14T02:31:22.939Z,527.00
2023-05-14T02:31:53.065Z,525.00
2023-05-14T02:32:23.058Z,526.00
2023-05-14T02:32:53.112Z,525.00
2023-05-14T02:33:23.193Z,528.00
2023-05-14T02:33:53.174Z,527.00
2023-05-14T02:34:23.206Z,527.00
2023-05-14T02:34:53.250Z,526.00
2023-05-14T02:35:23.349Z,527.00
2023-05-14T02:35:53.399Z,527.00
2023-05-14T02:36:23.426Z,528.00
2023-05-14T02:36:53.461Z,528.00
2023-05-14T02:37:23.506Z,528.00
2023-05-14T02:37:53.553Z,529.00
2023-05-14T02:38:23.601Z,525.00
2023-05-14T02:38:53.626Z,526.00
2023-05-14T02:39:23.672Z,528.00
2023-05-14T02:39:53.723Z,529.00
2023-05-14T02:40:24.025Z,529.00
2023-05-14T02:40:53.879Z,527.00
2023-05-14T02:41:23.916Z,527.00
2023-05-14T02:41:53.980Z,528.00
2023-05-14T02:42:24.027Z,529.00
2023-05-14T02:42:54.102Z,528.00
2023-05-14T02:43:24.204Z,528.00
2023-05-14T02:43:54.288Z,527.00
2023-05-14T02:44:24.537Z,526.00
2023-05-14T02:44:54.386Z,526.00
2023-05-14T02:45:24.477Z,528.00
2023-05-14T02:45:54.479Z,527.00
2023-05-14T02:46:24.780Z,528.00
2023-05-14T02:46:54.721Z,529.00
2023-05-14T02:47:24.742Z,531.00
2023-05-14T02:47:54.757Z,534.00
2023-05-14T02:48:24.774Z,533.00
2023-05-14T02:48:54.861Z,533.00
2023-05-14T02:49:24.883Z,532.00
2023-05-14T02:49:54.988Z,531.00
2023-05-14T02:50:25.396Z,533.00
2023-05-14T02:50:55.108Z,533.00
2023-05-14T02:51:25.161Z,533.00
2023-05-14T02:51:55.239Z,531.00
2023-05-14T02:52:25.336Z,530.00
2023-05-14T02:52:55.374Z,532.00
2023-05-14T02:53:25.452Z,533.00
2023-05-14T02:53:55.546Z,531.00
2023-05-14T02:54:25.643Z,534.00
2023-05-14T02:54:55.729Z,533.00
2023-05-14T02:55:25.809Z,534.00
2023-05-14T02:55:55.883Z,534.00
2023-05-14T02:56:25.911Z,531.00
2023-05-14T02:56:56.007Z,534.00
2023-05-14T02:57:26.098Z,534.00
2023-05-14T02:57:56.169Z,532.00
2023-05-14T02:58:27.841Z,532.00
2023-05-14T02:58:56.271Z,531.00
2023-05-14T02:59:26.371Z,530.00
2023-05-14T02:59:56.415Z,529.00
2023-05-14T03:00:26.531Z,529.00
2023-05-14T03:00:56.601Z,529.00
2023-05-14T03:01:26.597Z,531.00
2023-05-14T03:01:56.677Z,528.00
2023-05-14T03:02:26.825Z,526.00
2023-05-14T03:02:56.744Z,524.00
2023-05-14T03:03:26.815Z,523.00
2023-05-14T03:03:56.790Z,523.00
2023-05-14T03:04:26.887Z,523.00
2023-05-14T03:04:56.974Z,523.00
2023-05-14T03:05:27.054Z,523.00
2023-05-14T03:05:57.167Z,522.00
2023-05-14T03:06:27.232Z,520.00
2023-05-14T03:06:57.322Z,522.00
2023-05-14T03:07:27.481Z,523.00
2023-05-14T03:07:57.474Z,524.00
2023-05-14T03:08:27.553Z,525.00
2023-05-14T03:08:57.657Z,523.00
2023-05-14T03:09:27.737Z,522.00
2023-05-14T03:09:57.832Z,522.00
2023-05-14T03:10:27.916Z,521.00
2023-05-14T03:10:57.986Z,520.00
2023-05-14T03:11:28.081Z,521.00
2023-05-14T03:11:58.171Z,520.00
2023-05-14T03:12:28.287Z,520.00
2023-05-14T03:12:58.253Z,523.00
2023-05-14T03:13:28.348Z,523.00
2023-05-14T03:13:58.426Z,524.00
2023-05-14T03:14:28.509Z,524.00
2023-05-14T03:14:58.590Z,522.00
2023-05-14T03:15:28.679Z,524.00
2023-05-14T03:15:58.768Z,525.00
2023-05-14T03:16:28.893Z,525.00
2023-05-14T03:16:59.055Z,524.00
2023-05-14T03:17:29.150Z,524.00
2023-05-14T03:17:59.139Z,525.00
2023-05-14T03:18:29.133Z,525.00
2023-05-14T03:18:59.225Z,523.00
2023-05-14T03:19:29.207Z,521.00
2023-05-14T03:19:59.411Z,522.00
2023-05-14T03:20:29.356Z,519.00
2023-05-14T03:20:59.442Z,518.00
2023-05-14T03:21:29.597Z,520.00
2023-05-14T03:21:59.560Z,521.00
2023-05-14T03:22:29.646Z,522.00
2023-05-14T03:22:59.721Z,522.00
2023-05-14T03:23:29.816Z,522.00
2023-05-14T03:23:59.902Z,521.00
2023-05-14T03:24:30.001Z,521.00
2023-05-14T03:25:00.124Z,521.00
2023-05-14T03:25:30.191Z,521.00
2023-05-14T03:26:00.302Z,521.00
2023-05-14T03:26:30.406Z,519.00
2023-05-14T03:27:00.478Z,520.00
2023-05-14T03:27:30.565Z,521.00
2023-05-14T03:28:00.655Z,520.00
2023-05-14T03:28:30.746Z,521.00
2023-05-14T03:29:00.841Z,522.00
2023-05-14T03:29:30.933Z,521.00
2023-05-14T03:30:01.014Z,522.00
2023-05-14T03:30:31.118Z,522.00
2023-05-14T03:31:01.265Z,521.00
2023-05-14T03:31:31.145Z,522.00
2023-05-14T03:32:01.229Z,525.00
2023-05-14T03:32:31.341Z,526.00
2023-05-14T03:33:01.404Z,526.00
2023-05-14T03:33:31.463Z,526.00
2023-05-14T03:34:01.525Z,527.00
2023-05-14T03:34:31.562Z,526.00
2023-05-14T03:35:01.607Z,527.00
2023-05-14T03:35:31.689Z,526.00
2023-05-14T03:36:01.748Z,525.00
2023-05-14T03:36:31.792Z,524.00
2023-05-14T03:37:01.970Z,524.00
2023-05-14T03:37:31.868Z,524.00
2023-05-14T03:38:01.915Z,523.00
2023-05-14T03:38:31.966Z,523.00
2023-05-14T03:39:02.001Z,523.00
2023-05-14T03:39:32.049Z,526.00
2023-05-14T03:40:02.088Z,526.00
2023-05-14T03:40:32.136Z,526.00
2023-05-14T03:41:02.178Z,527.00
2023-05-14T03:41:32.214Z,526.00
2023-05-14T03:42:02.265Z,528.00
2023-05-14T03:42:32.346Z,527.00
2023-05-14T03:43:02.436Z,527.00
2023-05-14T03:43:32.517Z,527.00
2023-05-14T03:44:02.606Z,527.00
2023-05-14T03:44:32.704Z,529.00
2023-05-14T03:45:02.782Z,528.00
2023-05-14T03:45:32.891Z,528.00
2023-05-14T03:46:02.859Z,527.00
2023-05-14T03:46:32.949Z,528.00
2023-05-14T03:47:03.031Z,528.00
2023-05-14T03:47:33.153Z,529.00
2023-05-14T03:48:03.302Z,526.00
2023-05-14T03:48:33.251Z,525.00
2023-05-14T03:49:03.462Z,526.00
2023-05-14T03:49:33.385Z,527.00
2023-05-14T03:50:03.457Z,527.00
2023-05-14T03:50:33.542Z,531.00
2023-05-14T03:51:03.640Z,530.00
2023-05-14T03:51:33.715Z,529.00
2023-05-14T03:52:03.790Z,530.00
2023-05-14T03:52:33.895Z,529.00
2023-05-14T03:53:03.956Z,530.00
2023-05-14T03:53:34.047Z,530.00
2023-05-14T03:54:04.140Z,529.00
2023-05-14T03:54:34.216Z,527.00
2023-05-14T03:55:04.293Z,526.00
2023-05-14T03:55:34.388Z,525.00
2023-05-14T03:56:04.469Z,526.00
2023-05-14T03:56:34.547Z,524.00
2023-05-14T03:57:04.632Z,521.00
2023-05-14T03:57:34.726Z,522.00
2023-05-14T03:58:04.802Z,521.00
2023-05-14T03:58:34.885Z,522.00
2023-05-14T03:59:04.983Z,523.00
2023-05-14T03:59:35.069Z,523.00
2023-05-14T04:00:05.166Z,523.00
2023-05-14T04:00:35.247Z,522.00
2023-05-14T04:01:05.311Z,520.00
2023-05-14T04:01:35.396Z,521.00
2023-05-14T04:02:05.492Z,522.00
2023-05-14T04:02:35.691Z,521.00
2023-05-14T04:03:05.744Z,523.00
2023-05-14T04:03:35.948Z,522.00
2023-05-14T04:04:05.805Z,522.00
2023-05-14T04:04:35.774Z,522.00
2023-05-14T04:05:05.828Z,522.00
2023-05-14T04:05:35.908Z,523.00
2023-05-14T04:06:05.999Z,524.00
2023-05-14T04:06:36.089Z,521.00
2023-05-14T04:07:06.162Z,524.00
2023-05-14T04:07:36.241Z,526.00
2023-05-14T04:08:06.359Z,526.00
2023-05-14T04:08:36.441Z,522.00
2023-05-14T04:09:06.508Z,525.00
2023-05-14T04:09:36.596Z,525.00
2023-05-14T04:10:06.667Z,526.00
2023-05-14T04:10:36.750Z,525.00
2023-05-14T04:11:06.840Z,524.00
2023-05-14T04:11:36.913Z,522.00
2023-05-14T04:12:07.003Z,521.00
2023-05-14T04:12:37.117Z,518.00
2023-05-14T04:13:07.197Z,518.00
2023-05-14T04:13:37.328Z,517.00
2023-05-14T04:14:07.395Z,515.00
2023-05-14T04:14:37.474Z,516.00
2023-05-14T04:15:07.566Z,514.00
2023-05-14T04:15:37.645Z,513.00
2023-05-14T04:16:07.825Z,513.00
2023-05-14T04:16:37.816Z,514.00
2023-05-14T04:17:07.906Z,516.00
2023-05-14T04:17:38.003Z,515.00
2023-05-14T04:18:08.200Z,514.00
2023-05-14T04:18:38.213Z,513.00
2023-05-14T04:19:08.344Z,516.00
2023-05-14T04:19:38.311Z,517.00
2023-05-14T04:20:08.401Z,518.00
2023-05-14T04:20:38.499Z,517.00
2023-05-14T04:21:08.578Z,517.00
2023-05-14T04:21:38.681Z,519.00
2023-05-14T04:22:08.778Z,521.00
2023-05-14T04:22:38.859Z,520.00
2023-05-14T04:23:08.963Z,523.00
2023-05-14T04:23:39.034Z,523.00
2023-05-14T04:24:09.121Z,522.00
2023-05-14T04:24:39.199Z,520.00
2023-05-14T04:25:09.296Z,520.00
2023-05-14T04:25:39.388Z,519.00
2023-05-14T04:26:09.470Z,520.00
2023-05-14T04:26:39.562Z,518.00
2023-05-14T04:27:09.658Z,518.00
2023-05-14T04:27:39.745Z,517.00
2023-05-14T04:28:09.828Z,515.00
2023-05-14T04:28:39.920Z,518.00
2023-05-14T04:29:10.009Z,515.00
2023-05-14T04:29:40.075Z,516.00
2023-05-14T04:30:10.167Z,517.00
2023-05-14T04:30:40.257Z,519.00
2023-05-14T04:31:10.435Z,517.00
2023-05-14T04:31:40.418Z,517.00
2023-05-14T04:32:10.388Z,515.00
2023-05-14T04:32:40.466Z,518.00
2023-05-14T04:33:10.624Z,516.00
2023-05-14T04:33:40.549Z,514.00
2023-05-14T04:34:10.584Z,515.00
2023-05-14T04:34:40.631Z,513.00
2023-05-14T04:35:10.662Z,515.00
2023-05-14T04:35:40.703Z,513.00
2023-05-14T04:36:10.757Z,516.00
2023-05-14T04:36:40.824Z,517.00
2023-05-14T04:37:10.861Z,515.00
2023-05-14T04:37:40.881Z,517.00
2023-05-14T04:38:10.943Z,518.00
2023-05-14T04:38:40.964Z,518.00
2023-05-14T04:39:11.011Z,517.00
2023-05-14T04:39:41.064Z,514.00
2023-05-14T04:40:11.126Z,516.00
2023-05-14T04:40:41.183Z,517.00
2023-05-14T04:41:11.221Z,517.00
2023-05-14T04:41:41.249Z,516.00
2023-05-14T04:42:11.322Z,516.00
2023-05-14T04:42:41.382Z,516.00
2023-05-14T04:43:11.475Z,514.00
2023-05-14T04:43:41.552Z,513.00
2023-05-14T04:44:11.641Z,512.00
2023-05-14T04:44:41.726Z,515.00
2023-05-14T04:45:11.829Z,514.00
2023-05-14T04:45:41.924Z,514.00
2023-05-14T04:46:12.114Z,514.00
2023-05-14T04:46:42.079Z,516.00
2023-05-14T04:47:12.157Z,514.00
2023-05-14T04:47:42.306Z,514.00
2023-05-14T04:48:12.270Z,514.00
2023-05-14T04:48:42.352Z,515.00
2023-05-14T04:49:12.437Z,514.00
2023-05-14T04:49:42.514Z,513.00
2023-05-14T04:50:12.634Z,512.00
2023-05-14T04:50:42.614Z,514.00
2023-05-14T04:51:12.689Z,515.00
2023-05-14T04:51:42.767Z,514.00
2023-05-14T04:52:12.864Z,517.00
2023-05-14T04:52:42.954Z,516.00
2023-05-14T04:53:13.063Z,514.00
2023-05-14T04:53:43.137Z,511.00
2023-05-14T04:54:13.247Z,513.00
2023-05-14T04:54:43.264Z,513.00
2023-05-14T04:55:13.236Z,514.00
2023-05-14T04:55:43.317Z,516.00
2023-05-14T04:56:13.399Z,514.00
2023-05-14T04:56:43.481Z,516.00
2023-05-14T04:57:13.580Z,514.00
2023-05-14T04:57:43.642Z,518.00
2023-05-14T04:58:13.729Z,520.00
2023-05-14T04:58:43.809Z,517.00
2023-05-14T04:59:13.901Z,517.00
2023-05-14T04:59:44.007Z,516.00
2023-05-14T05:00:14.082Z,516.00
2023-05-14T05:00:44.168Z,513.00
2023-05-14T05:01:14.312Z,513.00
2023-05-14T05:01:44.323Z,511.00
2023-05-14T05:02:14.320Z,510.00
2023-05-14T05:02:44.434Z,513.00
2023-05-14T05:03:14.619Z,512.00
2023-05-14T05:03:44.586Z,509.00
2023-05-14T05:04:14.610Z,511.00
2023-05-14T05:04:44.567Z,510.00
2023-05-14T05:05:14.652Z,509.00
2023-05-14T05:05:44.732Z,509.00
2023-05-14T05:06:14.819Z,510.00
2023-05-14T05:06:44.901Z,513.00
2023-05-14T05:07:14.994Z,514.00
2023-05-14T05:07:45.071Z,515.00
2023-05-14T05:08:15.372Z,515.00
2023-05-14T05:08:45.211Z,517.00
2023-05-14T05:09:15.294Z,517.00
2023-05-14T05:09:45.379Z,518.00
2023-05-14T05:10:15.469Z,519.00
2023-05-14T05:10:45.558Z,520.00
2023-05-14T05:11:15.652Z,517.00
2023-05-14T05:11:45.732Z,519.00
2023-05-14T05:12:15.819Z,518.00
2023-05-14T05:12:45.906Z,518.00
2023-05-14T05:13:16.011Z,519.00
2023-05-14T05:13:46.097Z,519.00
2023-05-14T05:14:16.188Z,519.00
2023-05-14T05:14:46.282Z,520.00
2023-05-14T05:15:16.357Z,517.00
2023-05-14T05:15:46.465Z,519.00
2023-05-14T05:16:16.480Z,520.00
2023-05-14T05:16:46.458Z,521.00
2023-05-14T05:17:16.541Z,518.00
2023-05-14T05:17:46.684Z,517.00
2023-05-14T05:18:16.648Z,517.00
2023-05-14T05:18:46.799Z,517.00
2023-05-14T05:19:16.960Z,513.00
2023-05-14T05:19:46.931Z,515.00
2023-05-14T05:20:16.878Z,514.00
2023-05-14T05:20:46.949Z,514.00
2023-05-14T05:21:17.037Z,515.00
2023-05-14T05:21:47.124Z,514.00
2023-05-14T05:22:17.218Z,516.00
2023-05-14T05:22:47.306Z,516.00
2023-05-14T05:23:17.414Z,515.00
2023-05-14T05:23:47.480Z,515.00
2023-05-14T05:24:17.555Z,514.00
2023-05-14T05:24:49.704Z,516.00
2023-05-14T05:25:17.686Z,517.00
2023-05-14T05:25:47.773Z,516.00
2023-05-14T05:26:17.852Z,516.00
2023-05-14T05:26:47.959Z,516.00
2023-05-14T05:27:18.049Z,517.00
2023-05-14T05:27:48.133Z,514.00
2023-05-14T05:28:18.224Z,519.00
2023-05-14T05:28:48.306Z,516.00
2023-05-14T05:29:18.400Z,515.00
2023-05-14T05:29:48.486Z,514.00
2023-05-14T05:30:18.570Z,515.00
2023-05-14T05:30:48.655Z,514.00
2023-05-14T05:31:19.932Z,516.00
2023-05-14T05:31:48.904Z,515.00
2023-05-14T05:32:18.782Z,515.00
2023-05-14T05:32:48.869Z,513.00
2023-05-14T05:33:18.836Z,514.00
2023-05-14T05:33:48.875Z,518.00
2023-05-14T05:34:18.916Z,514.00
2023-05-14T05:34:48.956Z,516.00
2023-05-14T05:35:19.005Z,516.00
2023-05-14T05:35:49.051Z,514.00
2023-05-14T05:36:19.110Z,513.00
2023-05-14T05:36:49.148Z,512.00
2023-05-14T05:37:19.199Z,515.00
2023-05-14T05:37:49.246Z,513.00
2023-05-14T05:38:19.310Z,512.00
2023-05-14T05:38:49.322Z,510.00
2023-05-14T05:39:19.360Z,513.00
2023-05-14T05:39:49.413Z,512.00
2023-05-14T05:40:19.457Z,515.00
2023-05-14T05:40:49.509Z,516.00
2023-05-14T05:41:19.552Z,516.00
2023-05-14T05:41:49.599Z,517.00
2023-05-14T05:42:19.647Z,517.00
2023-05-14T05:42:49.751Z,516.00
2023-05-14T05:43:19.810Z,517.00
2023-05-14T05:43:49.908Z,518.00
2023-05-14T05:44:19.995Z,517.00
2023-05-14T05:44:50.080Z,518.00
2023-05-14T05:45:20.174Z,517.00
2023-05-14T05:45:50.268Z,516.00
2023-05-14T05:46:20.378Z,515.00
2023-05-14T05:46:50.583Z,515.00
2023-05-14T05:47:20.520Z,514.00
2023-05-14T05:47:50.590Z,515.00
2023-05-14T05:48:20.583Z,516.00
2023-05-14T05:48:50.549Z,516.00
2023-05-14T05:49:20.630Z,517.00
2023-05-14T05:49:50.712Z,517.00
2023-05-14T05:50:21.463Z,517.00
2023-05-14T05:50:50.877Z,515.00
2023-05-14T05:51:20.965Z,516.00
2023-05-14T05:51:51.043Z,515.00
2023-05-14T05:52:21.135Z,515.00
2023-05-14T05:52:51.213Z,515.00
2023-05-14T05:53:21.307Z,515.00
2023-05-14T05:53:51.411Z,518.00
2023-05-14T05:54:21.475Z,519.00
2023-05-14T05:54:51.608Z,522.00
2023-05-14T05:55:21.572Z,523.00
2023-05-14T05:55:51.717Z,523.00
2023-05-14T05:56:21.723Z,523.00
2023-05-14T05:56:51.829Z,534.00
2023-05-14T05:57:21.917Z,532.00
2023-05-14T05:57:51.995Z,528.00
2023-05-14T05:58:22.110Z,525.00
2023-05-14T05:58:52.174Z,525.00
2023-05-14T05:59:22.260Z,523.00
2023-05-14T05:59:52.343Z,523.00
2023-05-14T06:00:22.718Z,522.00
2023-05-14T06:00:52.489Z,520.00
2023-05-14T06:01:22.577Z,519.00
2023-05-14T06:01:52.737Z,520.00
2023-05-14T06:02:22.851Z,519.00
2023-05-14T06:02:52.805Z,518.00
2023-05-14T06:03:22.886Z,517.00
2023-05-14T06:03:52.902Z,517.00
2023-05-14T06:04:22.966Z,519.00
2023-05-14T06:04:53.225Z,519.00
2023-05-14T06:05:23.140Z,519.00
2023-05-14T06:05:53.193Z,519.00
2023-05-14T06:06:23.217Z,518.00
2023-05-14T06:06:53.304Z,518.00
2023-05-14T06:07:23.394Z,519.00
2023-05-14T06:07:53.474Z,520.00
2023-05-14T06:08:23.563Z,520.00
2023-05-14T06:08:53.679Z,520.00
2023-05-14T06:09:23.746Z,518.00
2023-05-14T06:09:53.820Z,519.00
2023-05-14T06:10:24.109Z,519.00
2023-05-14T06:10:53.923Z,518.00
2023-05-14T06:11:24.024Z,518.00
2023-05-14T06:11:54.106Z,518.00
2023-05-14T06:12:24.192Z,517.00
2023-05-14T06:12:54.280Z,517.00
2023-05-14T06:13:24.369Z,517.00
2023-05-14T06:13:54.459Z,516.00
2023-05-14T06:14:24.542Z,515.00
2023-05-14T06:14:54.629Z,515.00
2023-05-14T06:15:24.725Z,516.00